createdAt,value
2018-03-03T00:01:19.102Z,64.53
2018-03-03T00:03:49.251Z,65.97
2018-03-03T00:06:18.391Z,59.53
2018-03-03T00:08:47.502Z,63.23
2018-03-03T00:11:16.587Z,67.27
2018-03-03T00:13:45.711Z,60.87
2018-03-03T00:16:14.780Z,58.20
2018-03-03T00:18:43.915Z,58.27
2018-03-03T00:21:13.044Z,60.10
2018-03-03T00:23:42.875Z,68.60
2018-03-03T00:26:11.976Z,64.00
2018-03-03T00:28:41.080Z,63.33
2018-03-03T00:31:10.197Z,71.33
2018-03-03T00:33:39.288Z,72.13
2018-03-03T00:36:08.402Z,68.27
2018-03-03T00:38:37.511Z,70.77
2018-03-03T00:41:06.628Z,66.87
2018-03-03T00:43:35.696Z,73.53
2018-03-03T00:46:04.781Z,67.07
2018-03-03T00:48:33.903Z,65.30
2018-03-03T00:51:03.757Z,56.83
2018-03-03T00:53:32.863Z,65.93
2018-03-03T00:56:02.704Z,61.60
2018-03-03T00:58:31.823Z,63.10
2018-03-03T01:01:01.657Z,67.67
2018-03-03T01:03:30.759Z,62.20
2018-03-03T01:05:59.856Z,62.33
2018-03-03T01:08:28.934Z,65.87
2018-03-03T01:10:58.033Z,53.77
2018-03-03T01:13:27.128Z,57.37
2018-03-03T01:15:56.220Z,57.70
2018-03-03T01:18:25.346Z,57.30
2018-03-03T01:20:54.428Z,59.00
2018-03-03T01:23:23.620Z,46.93
2018-03-03T01:25:52.688Z,46.30
2018-03-03T01:28:22.617Z,46.87
2018-03-03T01:30:51.694Z,43.90
2018-03-03T01:33:21.568Z,49.53
2018-03-03T01:35:50.667Z,40.77
2018-03-03T01:38:19.762Z,47.20
2018-03-03T01:40:48.870Z,53.50
2018-03-03T01:43:17.958Z,47.20
2018-03-03T01:45:47.054Z,53.43
2018-03-03T01:48:16.142Z,49.40
2018-03-03T01:50:45.261Z,51.20
2018-03-03T01:53:14.363Z,54.80
2018-03-03T01:55:43.441Z,58.67
2018-03-03T01:58:12.550Z,57.63
2018-03-03T02:00:41.624Z,57.50
2018-03-03T02:03:10.748Z,65.00
2018-03-03T02:05:40.661Z,56.90
2018-03-03T02:08:11.119Z,59.97
2018-03-03T02:10:40.223Z,66.13
2018-03-03T02:13:10.003Z,57.90
2018-03-03T02:15:39.125Z,60.13
2018-03-03T02:18:08.203Z,68.20
2018-03-03T02:20:37.304Z,67.50
2018-03-03T02:23:06.378Z,69.30
2018-03-03T02:25:36.258Z,65.03
2018-03-03T02:28:05.332Z,61.37
2018-03-03T02:30:34.444Z,61.77
2018-03-03T02:33:03.834Z,60.73
2018-03-03T02:35:32.910Z,64.30
2018-03-03T02:38:02.027Z,61.93
2018-03-03T02:40:31.094Z,69.17
2018-03-03T02:43:00.193Z,64.20
2018-03-03T02:45:29.396Z,61.07
2018-03-03T02:47:58.472Z,66.73
2018-03-03T02:50:27.567Z,62.63
2018-03-03T02:52:56.693Z,65.53
2018-03-03T02:55:25.780Z,68.10
2018-03-03T02:57:54.899Z,58.17
2018-03-03T03:00:24.018Z,66.77
2018-03-03T03:02:53.118Z,63.60
2018-03-03T03:05:23.024Z,66.60
2018-03-03T03:07:52.132Z,54.60
2018-03-03T03:10:21.999Z,54.67
2018-03-03T03:12:51.110Z,62.90
2018-03-03T03:15:20.190Z,58.43
2018-03-03T03:17:49.299Z,71.00
2018-03-03T03:20:18.387Z,59.37
2018-03-03T03:22:47.536Z,71.40
2018-03-03T03:25:17.366Z,64.33
2018-03-03T03:27:46.470Z,57.83
2018-03-03T03:30:15.557Z,67.43
2018-03-03T03:32:44.663Z,61.90
2018-03-03T03:35:13.759Z,67.77
2018-03-03T03:37:42.874Z,61.23
2018-03-03T03:40:11.963Z,67.90
2018-03-03T03:42:41.028Z,55.80
2018-03-03T03:45:10.155Z,63.07
2018-03-03T03:47:39.227Z,63.17
2018-03-03T03:50:08.331Z,56.83
2018-03-03T03:52:37.431Z,54.40
2018-03-03T03:55:06.539Z,56.27
2018-03-03T03:57:35.631Z,63.13
2018-03-03T04:00:05.507Z,64.20
2018-03-03T04:02:34.579Z,57.17
2018-03-03T04:05:04.469Z,58.80
2018-03-03T04:07:33.571Z,57.00
2018-03-03T04:10:02.698Z,98.00
2018-03-03T04:12:31.774Z,66.00
2018-03-03T04:15:01.655Z,63.00
2018-03-03T04:17:30.745Z,58.37
2018-03-03T04:19:59.875Z,57.90
2018-03-03T04:22:29.020Z,54.40
2018-03-03T04:24:58.197Z,51.57
2018-03-03T04:27:27.299Z,55.00
2018-03-03T04:29:56.405Z,51.13
2018-03-03T04:32:25.517Z,45.97
2018-03-03T04:34:54.604Z,51.27
2018-03-03T04:37:23.695Z,46.53
2018-03-03T04:39:52.799Z,49.80
2018-03-03T04:42:21.898Z,48.40
2018-03-03T04:44:51.007Z,49.00
2018-03-03T04:47:20.118Z,42.70
2018-03-03T04:49:49.194Z,46.90
2018-03-03T04:52:18.308Z,51.80
2018-03-03T04:54:47.412Z,44.20
2018-03-03T04:57:16.489Z,36.43
2018-03-03T04:59:47.857Z,36.27
2018-03-03T05:02:16.929Z,30.80
2018-03-03T05:18:38.915Z,31.40
2018-03-03T05:21:13.498Z,36.37
2018-03-03T05:37:23.497Z,36.93
2018-03-03T05:39:58.175Z,82.63
2018-03-03T05:42:33.677Z,60.80
2018-03-03T05:58:40.476Z,104.57
2018-03-03T06:01:15.852Z,100.23
2018-03-03T06:03:45.797Z,76.63
2018-03-03T06:19:35.879Z,59.90
2018-03-03T06:22:04.975Z,64.87
2018-03-03T06:24:34.075Z,54.87
2018-03-03T06:27:03.166Z,59.97
2018-03-03T06:29:32.283Z,61.40
2018-03-03T06:32:02.125Z,57.80
2018-03-03T06:34:31.442Z,67.70
2018-03-03T06:37:00.522Z,63.70
2018-03-03T06:39:29.659Z,61.63
2018-03-03T06:41:58.759Z,65.60
2018-03-03T06:44:27.858Z,65.07
2018-03-03T06:46:56.995Z,57.00
2018-03-03T06:49:26.123Z,140.63
2018-03-03T06:51:55.223Z,85.03
2018-03-03T06:54:24.604Z,71.40
2018-03-03T06:56:53.788Z,76.50
2018-03-03T06:59:22.958Z,66.20
2018-03-03T07:01:52.875Z,71.50
2018-03-03T07:04:22.737Z,57.83
2018-03-03T07:06:51.816Z,60.03
2018-03-03T07:09:20.959Z,59.93
2018-03-03T07:11:50.071Z,65.77
2018-03-03T07:14:19.384Z,79.97
2018-03-03T07:16:48.860Z,63.77
2018-03-03T07:19:17.940Z,50.73
2018-03-03T07:21:47.307Z,53.40
2018-03-03T07:24:16.411Z,57.67
2018-03-03T07:26:45.491Z,58.70
2018-03-03T07:29:14.562Z,51.30
2018-03-03T07:31:44.463Z,55.10
2018-03-03T07:34:13.539Z,63.97
2018-03-03T07:36:42.879Z,82.23
2018-03-03T07:39:12.753Z,71.00
2018-03-03T07:41:41.812Z,61.17
2018-03-03T07:44:10.902Z,65.60
2018-03-03T07:46:39.971Z,58.37
2018-03-03T07:49:09.841Z,59.20
2018-03-03T07:51:39.676Z,52.07
2018-03-03T07:54:08.776Z,65.03
2018-03-03T07:56:50.714Z,72.47
2018-03-03T07:59:19.844Z,63.70
2018-03-03T08:01:48.935Z,66.13
2018-03-03T08:04:18.042Z,67.10
2018-03-03T08:06:47.139Z,59.57
2018-03-03T08:09:16.206Z,59.07
2018-03-03T08:11:45.324Z,65.80
2018-03-03T08:14:14.391Z,74.93
2018-03-03T08:16:43.508Z,62.23
2018-03-03T08:19:12.624Z,57.63
2018-03-03T08:21:41.699Z,56.50
2018-03-03T08:24:10.803Z,55.90
2018-03-03T08:26:39.937Z,65.27
2018-03-03T08:29:09.786Z,115.33
2018-03-03T08:31:38.909Z,62.07
2018-03-03T08:34:08.040Z,56.70
2018-03-03T08:36:37.878Z,62.80
2018-03-03T08:39:07.016Z,64.80
2018-03-03T08:41:36.087Z,65.77
2018-03-03T08:44:05.159Z,75.50
2018-03-03T08:46:34.263Z,81.33
2018-03-03T08:49:03.344Z,75.07
2018-03-03T08:51:32.473Z,83.40
2018-03-03T08:54:01.527Z,86.63
2018-03-03T08:56:30.619Z,80.07
2018-03-03T08:58:59.727Z,76.70
2018-03-03T09:01:28.809Z,79.77
2018-03-03T09:03:57.920Z,74.27
2018-03-03T09:06:27.020Z,66.00
2018-03-03T09:08:56.118Z,74.30
2018-03-03T09:11:25.222Z,71.57
2018-03-03T09:13:54.291Z,77.33
2018-03-03T09:16:23.415Z,62.67
2018-03-03T09:18:52.532Z,71.67
2018-03-03T09:21:22.402Z,64.37
2018-03-03T09:23:51.511Z,71.17
2018-03-03T09:26:20.573Z,66.30
2018-03-03T09:28:50.433Z,70.13
2018-03-03T09:31:20.273Z,59.53
2018-03-03T09:33:49.363Z,70.07
2018-03-03T09:36:18.485Z,65.37
2018-03-03T09:38:48.307Z,70.73
2018-03-03T09:41:17.386Z,74.83
2018-03-03T09:43:46.463Z,85.27
2018-03-03T09:46:15.589Z,68.70
2018-03-03T09:48:45.443Z,58.33
2018-03-03T09:51:14.511Z,64.80
2018-03-03T09:53:43.598Z,58.27
2018-03-03T09:56:12.694Z,60.57
2018-03-03T09:58:41.757Z,62.43
2018-03-03T10:01:10.852Z,62.30
2018-03-03T10:03:39.939Z,61.87
2018-03-03T10:06:09.012Z,67.23
2018-03-03T10:08:38.063Z,58.63
2018-03-03T10:11:07.157Z,63.47
2018-03-03T10:13:36.261Z,62.40
2018-03-03T10:16:05.313Z,55.13
2018-03-03T10:18:34.397Z,67.30
2018-03-03T10:21:03.463Z,57.00
2018-03-03T10:23:32.562Z,60.50
2018-03-03T10:26:01.615Z,57.73
2018-03-03T10:28:31.513Z,56.33
2018-03-03T10:31:00.572Z,67.30
2018-03-03T10:33:29.665Z,55.40
2018-03-03T10:35:58.729Z,78.10
2018-03-03T10:38:27.834Z,65.23
2018-03-03T10:40:56.917Z,62.70
2018-03-03T10:43:26.774Z,58.27
2018-03-03T10:45:55.828Z,64.80
2018-03-03T10:48:24.922Z,60.57
2018-03-03T10:50:54.041Z,62.33
2018-03-03T10:53:23.093Z,59.33
2018-03-03T10:55:52.983Z,69.60
2018-03-03T10:58:22.054Z,76.20
2018-03-03T11:00:51.146Z,60.70
2018-03-03T11:03:20.208Z,58.70
2018-03-03T11:05:49.287Z,66.37
2018-03-03T11:08:19.144Z,115.50
2018-03-03T11:10:48.245Z,64.47
2018-03-03T11:13:17.300Z,56.30
2018-03-03T11:15:46.461Z,59.93
2018-03-03T11:18:16.250Z,63.20
2018-03-03T11:20:45.348Z,56.03
2018-03-03T11:23:14.444Z,60.63
2018-03-03T11:25:43.515Z,61.63
2018-03-03T11:28:12.592Z,58.70
2018-03-03T11:30:41.660Z,53.97
2018-03-03T11:33:10.769Z,52.07
2018-03-03T11:35:40.583Z,43.77
2018-03-03T11:38:09.654Z,44.87
2018-03-03T11:40:38.893Z,39.30
2018-03-03T11:46:12.198Z,58.10
2018-03-03T11:48:42.038Z,61.70
2018-03-03T11:51:11.103Z,42.70
2018-03-03T11:53:40.164Z,40.03
2018-03-03T11:56:09.256Z,40.80
2018-03-03T11:58:38.377Z,41.07
2018-03-03T12:01:08.235Z,41.50
2018-03-03T12:03:37.308Z,46.67
2018-03-03T12:06:06.412Z,42.77
2018-03-03T12:08:35.563Z,47.90
2018-03-03T12:11:04.675Z,45.63
2018-03-03T12:13:33.750Z,45.83
2018-03-03T12:16:02.874Z,67.07
2018-03-03T12:18:31.936Z,49.50
2018-03-03T12:21:01.037Z,46.03
2018-03-03T12:23:30.111Z,47.90
2018-03-03T12:25:59.225Z,47.97
2018-03-03T12:28:28.407Z,44.90
2018-03-03T12:30:57.526Z,51.73
2018-03-03T12:33:26.619Z,45.43
2018-03-03T12:35:55.719Z,48.67
2018-03-03T12:38:24.804Z,51.53
2018-03-03T12:40:53.911Z,47.80
2018-03-03T12:43:22.975Z,48.07
2018-03-03T12:45:52.073Z,43.83
2018-03-03T12:48:21.202Z,45.43
2018-03-03T12:50:51.059Z,46.40
2018-03-03T12:53:20.122Z,45.47
2018-03-03T12:55:49.206Z,48.33
2018-03-03T12:58:19.044Z,46.20
2018-03-03T13:00:48.142Z,70.07
2018-03-03T13:03:17.232Z,63.93
2018-03-03T13:05:46.305Z,49.10
2018-03-03T13:08:16.165Z,50.80
2018-03-03T13:10:46.038Z,46.87
2018-03-03T13:13:16.675Z,49.90
2018-03-03T13:15:45.756Z,50.43
2018-03-03T13:18:15.575Z,54.57
2018-03-03T13:20:44.684Z,49.03
2018-03-03T13:23:13.752Z,50.93
2018-03-03T13:25:43.602Z,53.53
2018-03-03T13:28:12.664Z,54.90
2018-03-03T13:30:42.519Z,50.00
2018-03-03T13:33:11.577Z,52.70
2018-03-03T13:35:41.439Z,55.23
2018-03-03T13:38:10.546Z,51.30
2018-03-03T13:40:39.953Z,57.73
2018-03-03T13:43:09.008Z,58.13
2018-03-03T13:45:38.113Z,58.83
2018-03-03T13:48:07.204Z,70.23
2018-03-03T13:50:36.275Z,55.93
2018-03-03T13:53:05.362Z,55.07
2018-03-03T13:55:34.431Z,60.60
2018-03-03T13:58:03.537Z,61.00
2018-03-03T14:00:33.379Z,61.90
2018-03-03T14:03:02.464Z,58.20
2018-03-03T14:05:31.554Z,60.37
2018-03-03T14:08:00.641Z,61.57
2018-03-03T14:10:30.463Z,62.70
2018-03-03T14:12:59.573Z,64.07
2018-03-03T14:15:28.661Z,63.80
2018-03-03T14:17:57.712Z,65.87
2018-03-03T14:20:26.837Z,63.40
2018-03-03T14:22:56.693Z,58.03
2018-03-03T14:25:25.767Z,75.57
2018-03-03T14:27:54.847Z,71.93
2018-03-03T14:30:24.689Z,64.20
2018-03-03T14:32:53.795Z,65.87
2018-03-03T14:35:22.876Z,59.40
2018-03-03T14:37:51.934Z,68.80
2018-03-03T14:40:21.793Z,64.50
2018-03-03T14:42:50.924Z,72.27
2018-03-03T14:45:19.969Z,69.23
2018-03-03T14:47:49.034Z,64.43
2018-03-03T14:50:18.918Z,64.27
2018-03-03T14:52:48.071Z,69.33
2018-03-03T14:55:17.144Z,66.40
2018-03-03T14:57:46.186Z,70.40
2018-03-03T15:00:15.265Z,74.70
2018-03-03T15:02:44.352Z,82.63
2018-03-03T15:05:13.409Z,101.23
2018-03-03T15:07:43.222Z,76.30
2018-03-03T15:10:12.290Z,78.13
2018-03-03T15:12:41.381Z,73.27
2018-03-03T15:15:10.420Z,75.47
2018-03-03T15:17:39.482Z,70.20
2018-03-03T15:20:08.582Z,72.50
2018-03-03T15:22:38.367Z,78.10
2018-03-03T15:25:07.442Z,75.67
2018-03-03T15:27:37.273Z,65.23
2018-03-03T15:30:06.351Z,69.20
2018-03-03T15:32:35.422Z,74.60
2018-03-03T15:35:04.851Z,98.17
2018-03-03T15:37:35.141Z,116.03
2018-03-03T15:40:04.186Z,81.33
2018-03-03T15:42:33.268Z,76.93
2018-03-03T15:45:02.311Z,78.37
2018-03-03T15:47:31.391Z,82.40
2018-03-03T15:50:00.441Z,80.10
2018-03-03T15:52:29.522Z,81.77
2018-03-03T15:54:58.583Z,78.73
2018-03-03T15:57:27.658Z,84.10
2018-03-03T15:59:56.807Z,85.10
2018-03-03T16:02:25.908Z,78.63
2018-03-03T16:04:54.956Z,106.33
2018-03-03T16:07:24.924Z,122.53
2018-03-03T16:09:54.025Z,88.00
2018-03-03T16:12:23.129Z,91.83
2018-03-03T16:14:52.132Z,86.07
2018-03-03T16:17:21.806Z,85.07
2018-03-03T16:19:50.880Z,86.57
2018-03-03T16:22:19.929Z,83.27
2018-03-03T16:24:49.740Z,97.90
2018-03-03T16:27:18.819Z,132.77
2018-03-03T16:29:47.871Z,142.33
2018-03-03T16:32:16.966Z,93.13
2018-03-03T16:34:46.048Z,97.17
2018-03-03T16:37:15.918Z,84.60
2018-03-03T16:39:44.998Z,88.50
2018-03-03T16:42:14.120Z,89.17
2018-03-03T16:44:43.178Z,90.50
2018-03-03T16:47:12.321Z,92.97
2018-03-03T16:49:41.393Z,88.47
2018-03-03T16:52:10.500Z,91.93
2018-03-03T16:54:39.565Z,98.90
2018-03-03T16:57:08.636Z,95.07
2018-03-03T16:59:37.692Z,93.30
2018-03-03T17:02:06.763Z,90.30
2018-03-03T17:04:35.816Z,88.50
2018-03-03T17:07:04.898Z,95.07
2018-03-03T17:09:34.696Z,103.17
2018-03-03T17:12:04.818Z,88.20
2018-03-03T17:14:33.882Z,95.83
2018-03-03T17:17:02.922Z,101.40
2018-03-03T17:19:32.008Z,98.97
2018-03-03T17:22:01.860Z,99.17
2018-03-03T17:24:30.935Z,97.70
2018-03-03T17:27:00.007Z,95.77
2018-03-03T17:29:29.071Z,89.80
2018-03-03T17:31:58.139Z,90.40
2018-03-03T17:34:27.208Z,91.73
2018-03-03T17:36:56.313Z,93.90
2018-03-03T17:39:25.381Z,85.57
2018-03-03T17:41:55.226Z,87.80
2018-03-03T17:44:24.321Z,92.43
2018-03-03T17:46:53.391Z,86.17
2018-03-03T17:49:23.280Z,86.13
2018-03-03T17:51:52.375Z,83.83
2018-03-03T17:54:21.488Z,85.63
2018-03-03T17:56:51.356Z,86.13
2018-03-03T17:59:20.449Z,87.00
2018-03-03T18:01:49.523Z,81.33
2018-03-03T18:04:18.589Z,88.50
2018-03-03T18:06:48.429Z,83.40
2018-03-03T18:09:17.506Z,85.30
2018-03-03T18:11:59.461Z,83.57
2018-03-03T18:14:28.506Z,92.93
2018-03-03T18:16:57.594Z,90.97
2018-03-03T18:19:41.532Z,85.27
2018-03-03T18:22:10.611Z,84.57
2018-03-03T18:24:40.480Z,93.03
2018-03-03T18:27:09.537Z,94.43
2018-03-03T18:29:38.654Z,86.17
2018-03-03T18:32:07.722Z,84.20
2018-03-03T18:34:36.785Z,92.07
2018-03-03T18:37:05.871Z,81.80
2018-03-03T18:39:34.923Z,86.77
2018-03-03T18:42:04.022Z,73.57
2018-03-03T18:44:33.067Z,90.07
2018-03-03T18:47:02.158Z,84.00
2018-03-03T18:49:31.228Z,99.00
2018-03-03T18:52:00.378Z,98.93
2018-03-03T18:54:29.455Z,103.97
2018-03-03T18:56:58.521Z,80.33
2018-03-03T18:59:27.766Z,79.73
2018-03-03T19:01:57.735Z,100.30
2018-03-03T19:04:26.796Z,177.60
2018-03-03T19:06:55.890Z,93.50
2018-03-03T19:09:25.091Z,93.87
2018-03-03T19:11:54.150Z,87.07
2018-03-03T19:14:23.977Z,100.53
2018-03-03T19:16:53.064Z,92.43
2018-03-03T19:19:22.875Z,89.40
2018-03-03T19:21:52.700Z,88.27
2018-03-03T19:24:21.781Z,90.90
2018-03-03T19:26:50.828Z,88.67
2018-03-03T19:29:20.740Z,92.27
2018-03-03T19:31:49.843Z,99.53
2018-03-03T19:34:18.901Z,94.87
2018-03-03T19:39:53.601Z,92.37
2018-03-03T19:42:22.984Z,80.87
2018-03-03T19:44:52.084Z,89.80
2018-03-03T19:47:21.139Z,91.73
2018-03-03T19:49:50.316Z,87.33
2018-03-03T19:52:20.142Z,88.37
2018-03-03T19:54:49.215Z,90.23
2018-03-03T19:57:19.096Z,88.47
2018-03-03T19:59:48.346Z,87.30
2018-03-03T20:02:17.402Z,81.77
2018-03-03T20:04:46.558Z,82.90
2018-03-03T20:07:15.605Z,83.47
2018-03-03T20:09:44.680Z,86.57
2018-03-03T20:12:13.832Z,94.63
2018-03-03T20:14:42.888Z,101.90
2018-03-03T20:17:11.975Z,96.07
2018-03-03T20:19:41.048Z,90.43
2018-03-03T20:22:10.105Z,106.50
2018-03-03T20:24:39.158Z,116.90
2018-03-03T20:27:08.288Z,108.77
2018-03-03T20:29:37.363Z,122.80
2018-03-03T20:32:07.183Z,120.97
2018-03-03T20:34:37.083Z,129.43
2018-03-03T20:37:06.939Z,130.27
2018-03-03T20:39:36.020Z,135.77
2018-03-03T20:42:05.089Z,126.50
2018-03-03T20:44:35.020Z,137.80
2018-03-03T20:47:04.075Z,123.47
2018-03-03T20:49:33.188Z,121.63
2018-03-03T20:52:02.241Z,108.73
2018-03-03T20:54:31.337Z,117.77
2018-03-03T20:57:00.416Z,104.03
2018-03-03T20:59:29.475Z,107.07
2018-03-03T21:01:59.300Z,102.90
2018-03-03T21:04:28.469Z,116.47
2018-03-03T21:06:57.522Z,108.20
2018-03-03T21:09:26.589Z,112.80
2018-03-03T21:11:56.433Z,102.47
2018-03-03T21:14:25.481Z,99.60
2018-03-03T21:16:55.321Z,108.23
2018-03-03T21:19:24.425Z,109.87
2018-03-03T21:21:53.497Z,117.53
2018-03-03T21:24:22.568Z,120.80
2018-03-03T21:26:51.688Z,118.00
2018-03-03T21:29:20.760Z,117.20
2018-03-03T21:31:50.647Z,111.20
2018-03-03T21:34:19.772Z,123.00
2018-03-03T21:36:49.596Z,121.10
2018-03-03T21:39:19.429Z,123.60
2018-03-03T21:41:48.499Z,112.57
2018-03-03T21:44:18.329Z,116.13
2018-03-03T21:46:47.423Z,120.63
2018-03-03T21:49:16.497Z,125.03
2018-03-03T21:51:46.320Z,119.67
2018-03-03T21:54:16.184Z,105.13
2018-03-03T21:56:45.277Z,98.97
2018-03-03T21:59:14.396Z,89.43
2018-03-03T22:01:43.451Z,92.63
2018-03-03T22:04:12.548Z,91.50
2018-03-03T22:06:41.628Z,92.37
2018-03-03T22:09:10.688Z,98.00
2018-03-03T22:11:40.516Z,97.33
2018-03-03T22:14:09.628Z,93.13
2018-03-03T22:16:38.713Z,86.40
2018-03-03T22:19:07.776Z,89.40
2018-03-03T22:21:36.863Z,98.80
2018-03-03T22:24:05.939Z,91.40
2018-03-03T22:26:34.999Z,88.67
2018-03-03T22:29:04.081Z,89.77
2018-03-03T22:31:33.143Z,88.40
2018-03-03T22:34:02.191Z,72.53
2018-03-03T22:36:31.340Z,74.37
2018-03-03T22:39:00.376Z,73.80
2018-03-03T22:41:29.440Z,73.97
2018-03-03T22:43:59.287Z,73.73
2018-03-03T22:46:28.369Z,85.00
2018-03-03T22:48:57.420Z,76.23
2018-03-03T22:51:26.546Z,76.33
2018-03-03T22:53:56.384Z,74.00
2018-03-03T22:56:25.443Z,74.47
2018-03-03T22:58:54.514Z,72.37
2018-03-03T23:01:23.569Z,76.43
2018-03-03T23:03:52.672Z,81.97
2018-03-03T23:06:21.851Z,74.13
2018-03-03T23:08:50.927Z,69.00
2018-03-03T23:11:20.790Z,79.03
2018-03-03T23:13:49.843Z,63.47
2018-03-03T23:16:18.904Z,70.93
2018-03-03T23:18:48.031Z,70.77
2018-03-03T23:21:17.101Z,67.43
2018-03-03T23:23:46.171Z,68.10
2018-03-03T23:26:15.257Z,69.73
2018-03-03T23:28:44.318Z,72.50
2018-03-03T23:31:13.383Z,66.87
2018-03-03T23:33:44.713Z,76.30
2018-03-03T23:36:13.769Z,70.90
2018-03-03T23:38:43.610Z,68.93
2018-03-03T23:41:12.822Z,72.40
2018-03-03T23:43:41.910Z,68.73
2018-03-03T23:46:10.973Z,74.20
2018-03-03T23:48:40.091Z,72.47
2018-03-03T23:51:09.156Z,75.90
2018-03-03T23:53:38.219Z,78.60
2018-03-03T23:56:08.112Z,74.47
2018-03-03T23:58:37.174Z,78.97
